createdAt,value
2019-05-25T00:00:43.320Z,83.02
2019-05-25T00:01:43.294Z,82.71
2019-05-25T00:02:43.313Z,82.71
2019-05-25T00:03:43.332Z,82.61
2019-05-25T00:04:43.264Z,82.51
2019-05-25T00:05:43.241Z,82.82
2019-05-25T00:06:43.244Z,82.82
2019-05-25T00:07:43.223Z,82.82
2019-05-25T00:08:43.255Z,82.82
2019-05-25T00:09:43.213Z,83.12
2019-05-25T00:10:43.200Z,83.12
2019-05-25T00:11:43.213Z,83.18
2019-05-25T00:12:43.197Z,83.12
2019-05-25T00:13:43.190Z,83.12
2019-05-25T00:14:43.152Z,83.12
2019-05-25T00:15:43.152Z,82.92
2019-05-25T00:16:43.129Z,83.02
2019-05-25T00:17:43.660Z,82.82
2019-05-25T00:18:43.128Z,83.43
2019-05-25T00:19:43.086Z,83.33
2019-05-25T00:20:43.090Z,83.43
2019-05-25T00:21:43.078Z,83.47
2019-05-25T00:22:43.057Z,83.43
2019-05-25T00:23:43.063Z,83.06
2019-05-25T00:24:43.037Z,83.47
2019-05-25T00:25:43.025Z,83.47
2019-05-25T00:26:43.028Z,83.47
2019-05-25T00:27:43.013Z,83.78
2019-05-25T00:28:43.065Z,83.98
2019-05-25T00:29:42.984Z,83.87
2019-05-25T00:30:42.964Z,83.98
2019-05-25T00:31:42.965Z,84.22
2019-05-25T00:32:42.950Z,84.18
2019-05-25T00:33:42.947Z,84.69
2019-05-25T00:34:42.929Z,84.74
2019-05-25T00:35:42.921Z,84.94
2019-05-25T00:36:42.900Z,84.74
2019-05-25T00:37:42.894Z,84.74
2019-05-25T00:38:42.905Z,84.33
2019-05-25T00:39:42.877Z,85.24
2019-05-25T00:40:42.876Z,83.81
2019-05-25T00:41:42.858Z,84.63
2019-05-25T00:42:42.833Z,85.24
2019-05-25T00:43:42.857Z,85.24
2019-05-25T00:44:42.820Z,85.75
2019-05-25T00:45:42.804Z,85.65
2019-05-25T00:46:42.803Z,85.38
2019-05-25T00:47:42.792Z,85.18
2019-05-25T00:48:42.793Z,85.28
2019-05-25T00:49:42.772Z,85.38
2019-05-25T00:50:42.753Z,85.08
2019-05-25T00:51:42.737Z,85.08
2019-05-25T00:52:42.742Z,84.98
2019-05-25T00:53:42.764Z,85.08
2019-05-25T00:54:42.706Z,85.14
2019-05-25T00:55:42.700Z,85.08
2019-05-25T00:56:42.695Z,85.28
2019-05-25T00:57:42.708Z,85.89
2019-05-25T00:58:42.689Z,86.30
2019-05-25T00:59:42.656Z,85.89
2019-05-25T01:00:42.644Z,85.79
2019-05-25T01:01:42.636Z,85.69
2019-05-25T01:03:51.890Z,86.91
2019-05-25T01:04:52.820Z,85.89
2019-05-25T01:05:52.809Z,86.30
2019-05-25T01:06:52.806Z,86.51
2019-05-25T01:07:52.784Z,86.30
2019-05-25T01:08:52.784Z,86.30
2019-05-25T01:09:52.783Z,86.85
2019-05-25T01:10:52.759Z,87.02
2019-05-25T01:11:52.760Z,86.85
2019-05-25T01:12:52.738Z,86.55
2019-05-25T01:13:52.800Z,87.26
2019-05-25T01:14:52.721Z,86.96
2019-05-25T01:15:52.715Z,87.47
2019-05-25T01:16:52.710Z,87.47
2019-05-25T01:17:52.679Z,87.77
2019-05-25T01:18:52.708Z,87.37
2019-05-25T01:19:52.671Z,87.37
2019-05-25T01:20:52.652Z,86.96
2019-05-25T01:21:52.669Z,87.57
2019-05-25T01:22:52.634Z,87.98
2019-05-25T01:23:52.655Z,87.47
2019-05-25T01:24:52.687Z,87.47
2019-05-25T01:25:52.581Z,87.16
2019-05-25T01:26:52.582Z,87.88
2019-05-25T01:27:52.591Z,87.67
2019-05-25T01:28:52.607Z,87.51
2019-05-25T01:29:52.553Z,87.92
2019-05-25T01:30:52.564Z,88.53
2019-05-25T01:31:52.549Z,88.23
2019-05-25T01:32:52.509Z,88.94
2019-05-25T01:33:52.527Z,88.84
2019-05-25T01:34:52.519Z,88.53
2019-05-25T01:35:52.508Z,88.53
2019-05-25T01:36:52.484Z,88.53
2019-05-25T01:37:52.486Z,88.33
2019-05-25T01:38:52.474Z,88.88
2019-05-25T01:39:52.462Z,89.59
2019-05-25T01:40:52.460Z,89.59
2019-05-25T01:41:52.416Z,89.70
2019-05-25T01:42:52.395Z,89.18
2019-05-25T01:43:52.409Z,89.50
2019-05-25T01:44:52.405Z,89.09
2019-05-25T01:45:52.408Z,89.29
2019-05-25T01:46:52.388Z,89.59
2019-05-25T01:47:52.353Z,89.80
2019-05-25T01:48:52.391Z,89.50
2019-05-25T01:49:52.345Z,89.80
2019-05-25T01:50:52.343Z,89.59
2019-05-25T01:51:52.303Z,89.50
2019-05-25T01:52:52.285Z,89.84
2019-05-25T01:53:52.283Z,89.84
2019-05-25T01:54:59.754Z,89.74
2019-05-25T01:55:52.302Z,90.25
2019-05-25T01:56:52.243Z,90.97
2019-05-25T01:57:52.237Z,90.77
2019-05-25T01:58:52.239Z,90.45
2019-05-25T01:59:52.222Z,90.45
2019-05-25T02:00:52.207Z,90.56
2019-05-25T02:01:52.215Z,90.66
2019-05-25T02:02:52.208Z,90.77
2019-05-25T02:03:52.201Z,90.77
2019-05-25T02:04:52.181Z,91.17
2019-05-25T02:05:52.158Z,90.45
2019-05-25T02:06:52.149Z,90.45
2019-05-25T02:07:52.155Z,90.36
2019-05-25T02:08:52.105Z,90.56
2019-05-25T02:09:52.155Z,90.36
2019-05-25T02:10:52.119Z,90.36
2019-05-25T02:11:52.101Z,90.97
2019-05-25T02:12:52.177Z,90.45
2019-05-25T02:13:52.054Z,90.81
2019-05-25T02:14:52.092Z,91.22
2019-05-25T02:15:52.035Z,91.11
2019-05-25T02:16:52.041Z,91.63
2019-05-25T02:17:52.028Z,91.58
2019-05-25T02:18:52.012Z,91.93
2019-05-25T02:19:52.026Z,92.24
2019-05-25T02:20:51.987Z,92.03
2019-05-25T02:21:51.972Z,91.73
2019-05-25T02:22:51.953Z,91.93
2019-05-25T02:23:51.963Z,91.63
2019-05-25T02:24:51.940Z,92.24
2019-05-25T02:25:51.960Z,91.93
2019-05-25T02:26:51.952Z,92.14
2019-05-25T02:27:51.950Z,91.93
2019-05-25T02:28:51.906Z,92.03
2019-05-25T02:29:51.912Z,91.93
2019-05-25T02:30:51.867Z,92.03
2019-05-25T02:31:51.868Z,92.38
2019-05-25T02:32:51.853Z,92.75
2019-05-25T02:33:51.829Z,91.93
2019-05-25T02:34:51.898Z,93.06
2019-05-25T02:35:51.812Z,92.96
2019-05-25T02:36:51.794Z,92.59
2019-05-25T02:37:51.794Z,92.49
2019-05-25T02:38:51.821Z,93.30
2019-05-25T02:39:51.830Z,93.10
2019-05-25T02:40:51.755Z,93.00
2019-05-25T02:41:51.745Z,92.85
2019-05-25T02:42:51.762Z,92.75
2019-05-25T02:43:51.738Z,93.26
2019-05-25T02:44:51.753Z,92.90
2019-05-25T02:45:51.721Z,93.00
2019-05-25T02:46:51.731Z,93.20
2019-05-25T02:47:51.690Z,93.30
2019-05-25T02:48:51.673Z,93.82
2019-05-25T02:49:51.709Z,93.82
2019-05-25T02:50:53.120Z,92.90
2019-05-25T02:51:51.646Z,93.41
2019-05-25T02:52:51.661Z,93.10
2019-05-25T02:53:51.648Z,93.71
2019-05-25T02:54:51.637Z,93.20
2019-05-25T02:55:51.597Z,93.41
2019-05-25T02:56:51.595Z,93.41
2019-05-25T02:57:51.578Z,93.62
2019-05-25T02:58:51.599Z,93.30
2019-05-25T02:59:51.579Z,93.41
2019-05-25T03:00:51.565Z,93.41
2019-05-25T03:01:51.531Z,93.62
2019-05-25T03:02:51.554Z,93.71
2019-05-25T03:05:00.747Z,93.51
2019-05-25T03:06:01.791Z,93.51
2019-05-25T03:07:01.709Z,93.92
2019-05-25T03:08:01.705Z,93.92
2019-05-25T03:09:01.718Z,93.62
2019-05-25T03:10:01.726Z,93.82
2019-05-25T03:11:01.671Z,93.20
2019-05-25T03:12:01.663Z,93.51
2019-05-25T03:13:01.652Z,94.02
2019-05-25T03:14:01.631Z,93.41
2019-05-25T03:15:01.678Z,93.30
2019-05-25T03:16:01.610Z,93.41
2019-05-25T03:17:01.590Z,93.82
2019-05-25T03:18:01.592Z,93.82
2019-05-25T03:19:01.579Z,94.12
2019-05-25T03:20:01.588Z,93.82
2019-05-25T03:21:01.551Z,93.71
2019-05-25T03:22:01.552Z,93.62
2019-05-25T03:23:01.551Z,93.62
2019-05-25T03:24:01.530Z,93.41
2019-05-25T03:25:01.514Z,93.25
2019-05-25T03:26:01.523Z,93.41
2019-05-25T03:27:01.508Z,93.51
2019-05-25T03:28:01.481Z,93.62
2019-05-25T03:29:01.460Z,93.10
2019-05-25T03:30:01.711Z,93.20
2019-05-25T03:31:01.463Z,93.30
2019-05-25T03:32:01.439Z,93.00
2019-05-25T03:33:01.587Z,92.90
2019-05-25T03:34:01.419Z,92.79
2019-05-25T03:35:01.501Z,93.26
2019-05-25T03:36:01.415Z,92.44
2019-05-25T03:37:01.389Z,92.55
2019-05-25T03:38:01.380Z,92.75
2019-05-25T03:39:01.369Z,91.93
2019-05-25T03:40:01.351Z,92.34
2019-05-25T03:41:01.348Z,91.93
2019-05-25T03:42:01.326Z,91.93
2019-05-25T03:43:01.344Z,92.14
2019-05-25T03:44:01.297Z,91.42
2019-05-25T03:45:01.283Z,91.52
2019-05-25T03:46:01.294Z,91.93
2019-05-25T03:47:01.287Z,91.93
2019-05-25T03:48:01.267Z,91.52
2019-05-25T03:49:01.314Z,91.17
2019-05-25T03:50:01.241Z,91.07
2019-05-25T03:51:01.264Z,91.31
2019-05-25T03:52:01.227Z,91.38
2019-05-25T03:53:01.204Z,91.38
2019-05-25T03:54:01.206Z,91.27
2019-05-25T03:55:01.176Z,90.66
2019-05-25T03:56:05.998Z,90.56
2019-05-25T03:57:01.166Z,90.56
2019-05-25T03:58:01.140Z,90.77
2019-05-25T03:59:01.140Z,90.45
2019-05-25T04:00:01.131Z,91.13
2019-05-25T04:01:01.153Z,89.50
2019-05-25T04:02:01.113Z,89.29
2019-05-25T04:03:01.103Z,89.33
2019-05-25T04:04:01.089Z,89.29
2019-05-25T04:05:01.074Z,88.78
2019-05-25T04:06:01.072Z,89.18
2019-05-25T04:07:01.056Z,88.68
2019-05-25T04:08:01.033Z,88.53
2019-05-25T04:09:01.057Z,88.33
2019-05-25T04:10:01.057Z,88.33
2019-05-25T04:11:01.018Z,87.71
2019-05-25T04:12:01.006Z,87.30
2019-05-25T04:13:00.977Z,87.51
2019-05-25T04:14:00.991Z,87.51
2019-05-25T04:15:00.992Z,87.92
2019-05-25T04:16:00.984Z,87.61
2019-05-25T04:17:00.947Z,87.41
2019-05-25T04:18:00.929Z,86.69
2019-05-25T04:19:00.912Z,87.41
2019-05-25T04:20:00.915Z,87.51
2019-05-25T04:21:00.927Z,87.20
2019-05-25T04:22:00.900Z,86.69
2019-05-25T04:23:00.873Z,86.49
2019-05-25T04:24:00.857Z,87.06
2019-05-25T04:25:00.858Z,87.06
2019-05-25T04:26:00.867Z,86.79
2019-05-25T04:27:00.837Z,86.65
2019-05-25T04:28:00.821Z,87.26
2019-05-25T04:29:00.810Z,86.65
2019-05-25T04:30:00.801Z,86.76
2019-05-25T04:31:00.815Z,86.14
2019-05-25T04:32:00.795Z,86.14
2019-05-25T04:33:00.790Z,85.73
2019-05-25T04:34:00.761Z,86.24
2019-05-25T04:35:00.923Z,86.24
2019-05-25T04:36:00.742Z,86.35
2019-05-25T04:37:00.725Z,86.24
2019-05-25T04:38:00.717Z,85.32
2019-05-25T04:39:00.715Z,85.94
2019-05-25T04:40:00.748Z,85.53
2019-05-25T04:41:00.750Z,85.38
2019-05-25T04:42:00.667Z,85.83
2019-05-25T04:43:00.670Z,85.89
2019-05-25T04:44:00.649Z,85.69
2019-05-25T04:45:00.638Z,85.63
2019-05-25T04:46:00.634Z,85.89
2019-05-25T04:47:00.619Z,85.28
2019-05-25T04:48:00.608Z,86.10
2019-05-25T04:49:00.592Z,86.20
2019-05-25T04:50:00.583Z,85.18
2019-05-25T04:51:00.566Z,85.08
2019-05-25T04:52:00.578Z,85.18
2019-05-25T04:53:00.552Z,85.69
2019-05-25T04:54:00.538Z,85.53
2019-05-25T04:55:00.524Z,85.49
2019-05-25T04:56:00.503Z,85.59
2019-05-25T04:57:00.534Z,85.73
2019-05-25T04:58:00.514Z,86.00
2019-05-25T04:59:00.478Z,86.20
2019-05-25T05:00:00.476Z,86.10
2019-05-25T05:01:00.491Z,85.83
2019-05-25T05:02:00.501Z,86.44
2019-05-25T05:03:00.451Z,86.44
2019-05-25T05:04:00.417Z,86.20
2019-05-25T05:06:09.599Z,86.61
2019-05-25T05:07:10.621Z,86.91
2019-05-25T05:08:10.588Z,86.41
2019-05-25T05:09:10.572Z,85.89
2019-05-25T05:10:10.557Z,85.86
2019-05-25T05:11:10.556Z,85.14
2019-05-25T05:12:10.558Z,85.55
2019-05-25T05:13:10.526Z,85.14
2019-05-25T05:14:10.585Z,85.75
2019-05-25T05:15:10.515Z,85.45
2019-05-25T05:16:10.486Z,85.49
2019-05-25T05:17:10.511Z,85.18
2019-05-25T05:18:10.481Z,85.45
2019-05-25T05:19:10.477Z,85.45
2019-05-25T05:20:10.447Z,85.14
2019-05-25T05:21:10.444Z,85.24
2019-05-25T05:22:10.441Z,86.00
2019-05-25T05:23:10.424Z,86.10
2019-05-25T05:24:10.420Z,86.51
2019-05-25T05:25:11.106Z,86.61
2019-05-25T05:26:10.395Z,86.61
2019-05-25T05:27:10.384Z,85.55
2019-05-25T05:28:10.365Z,85.96
2019-05-25T05:29:10.366Z,86.06
2019-05-25T05:30:10.340Z,85.86
2019-05-25T05:31:22.669Z,85.14
2019-05-25T05:32:10.352Z,85.35
2019-05-25T05:33:10.306Z,85.35
2019-05-25T05:34:10.291Z,86.06
2019-05-25T05:35:10.295Z,86.06
2019-05-25T05:36:10.275Z,85.24
2019-05-25T05:37:10.280Z,85.04
2019-05-25T05:38:10.249Z,85.75
2019-05-25T05:39:10.250Z,85.75
2019-05-25T05:40:10.237Z,85.82
2019-05-25T05:41:10.222Z,85.92
2019-05-25T05:42:10.233Z,86.02
2019-05-25T05:43:10.214Z,85.00
2019-05-25T05:44:10.193Z,85.30
2019-05-25T05:45:10.180Z,85.00
2019-05-25T05:46:10.162Z,85.71
2019-05-25T05:47:10.596Z,85.45
2019-05-25T05:48:10.145Z,85.24
2019-05-25T05:49:10.139Z,85.04
2019-05-25T05:50:10.123Z,85.04
2019-05-25T05:51:10.106Z,85.24
2019-05-25T05:52:10.130Z,85.14
2019-05-25T05:53:10.113Z,85.24
2019-05-25T05:54:10.075Z,85.24
2019-05-25T05:55:10.077Z,85.24
2019-05-25T05:56:10.055Z,85.35
2019-05-25T05:57:12.723Z,85.65
2019-05-25T05:58:10.081Z,85.35
2019-05-25T05:59:10.042Z,85.59
2019-05-25T06:00:10.020Z,84.53
2019-05-25T06:01:10.005Z,84.83
2019-05-25T06:02:10.027Z,85.24
2019-05-25T06:03:09.989Z,84.42
2019-05-25T06:04:09.971Z,85.35
2019-05-25T06:05:09.963Z,85.28
2019-05-25T06:06:09.959Z,84.94
2019-05-25T06:07:09.950Z,84.98
2019-05-25T06:08:09.947Z,85.04
2019-05-25T06:09:09.918Z,84.94
2019-05-25T06:10:09.907Z,85.45
2019-05-25T06:11:09.893Z,85.61
2019-05-25T06:12:09.894Z,84.69
2019-05-25T06:13:09.911Z,85.45
2019-05-25T06:14:09.866Z,85.41
2019-05-25T06:15:09.857Z,84.53
2019-05-25T06:16:09.846Z,85.00
2019-05-25T06:17:09.842Z,85.21
2019-05-25T06:18:09.838Z,85.51
2019-05-25T06:19:09.817Z,85.41
2019-05-25T06:20:09.805Z,84.86
2019-05-25T06:21:09.795Z,84.75
2019-05-25T06:22:09.782Z,84.69
2019-05-25T06:23:12.287Z,84.69
2019-05-25T06:24:09.752Z,84.69
2019-05-25T06:25:09.744Z,84.90
2019-05-25T06:26:09.772Z,84.55
2019-05-25T06:27:09.714Z,84.18
2019-05-25T06:28:09.734Z,84.28
2019-05-25T06:29:09.701Z,85.30
2019-05-25T06:30:09.701Z,85.06
2019-05-25T06:31:09.685Z,83.78
2019-05-25T06:32:09.666Z,83.98
2019-05-25T06:33:09.681Z,84.04
2019-05-25T06:34:09.653Z,83.73
2019-05-25T06:35:09.642Z,83.84
2019-05-25T06:36:09.619Z,83.39
2019-05-25T06:37:09.620Z,83.18
2019-05-25T06:38:09.624Z,83.39
2019-05-25T06:39:09.602Z,82.98
2019-05-25T06:40:09.580Z,83.09
2019-05-25T06:41:09.577Z,82.98
2019-05-25T06:42:09.556Z,83.18
2019-05-25T06:43:09.570Z,83.33
2019-05-25T06:44:09.545Z,83.43
2019-05-25T06:45:09.519Z,83.39
2019-05-25T06:46:09.524Z,83.18
2019-05-25T06:47:09.502Z,82.10
2019-05-25T06:48:09.518Z,82.71
2019-05-25T06:49:09.480Z,82.51
2019-05-25T06:50:09.464Z,82.27
2019-05-25T06:51:09.457Z,82.03
2019-05-25T06:52:09.453Z,81.96
2019-05-25T06:53:09.454Z,81.01
2019-05-25T06:54:09.443Z,81.62
2019-05-25T06:55:09.426Z,80.60
2019-05-25T06:56:09.403Z,81.45
2019-05-25T06:57:09.440Z,80.80
2019-05-25T06:58:09.414Z,81.11
2019-05-25T06:59:09.385Z,81.11
2019-05-25T07:00:09.357Z,81.41
2019-05-25T07:01:09.352Z,80.97
2019-05-25T07:02:09.348Z,80.46
2019-05-25T07:03:09.345Z,79.75
2019-05-25T07:04:09.327Z,79.81
2019-05-25T07:05:09.319Z,78.93
2019-05-25T07:07:18.483Z,78.53
2019-05-25T07:08:19.495Z,78.08
2019-05-25T07:09:19.474Z,77.78
2019-05-25T07:10:19.448Z,76.52
2019-05-25T07:11:19.444Z,76.31
2019-05-25T07:12:19.434Z,75.78
2019-05-25T07:13:19.431Z,76.45
2019-05-25T07:14:19.409Z,77.00
2019-05-25T07:15:19.398Z,77.20
2019-05-25T07:16:19.375Z,77.10
2019-05-25T07:17:19.375Z,77.40
2019-05-25T07:18:19.380Z,77.61
2019-05-25T07:19:19.349Z,77.51
2019-05-25T07:20:19.348Z,77.40
2019-05-25T07:21:19.337Z,77.91
2019-05-25T07:22:19.322Z,78.02
2019-05-25T07:23:19.321Z,78.53
2019-05-25T07:24:19.286Z,77.71
2019-05-25T07:25:20.271Z,77.81
2019-05-25T07:26:19.281Z,77.71
2019-05-25T07:27:19.283Z,77.95
2019-05-25T07:28:19.275Z,78.53
2019-05-25T07:29:19.244Z,79.17
2019-05-25T07:30:19.233Z,78.66
2019-05-25T07:31:19.219Z,78.97
2019-05-25T07:32:19.208Z,78.97
2019-05-25T07:33:19.220Z,78.56
2019-05-25T07:34:19.182Z,79.07
2019-05-25T07:35:19.174Z,78.56
2019-05-25T07:36:19.172Z,76.73
2019-05-25T07:37:19.145Z,77.14
2019-05-25T07:38:19.164Z,77.20
2019-05-25T07:39:19.124Z,77.40
2019-05-25T07:40:19.109Z,77.10
2019-05-25T07:41:19.110Z,77.10
2019-05-25T07:42:20.078Z,75.33
2019-05-25T07:43:19.108Z,75.98
2019-05-25T07:44:19.083Z,76.35
2019-05-25T07:45:19.060Z,76.25
2019-05-25T07:46:19.860Z,76.21
2019-05-25T07:47:19.043Z,76.25
2019-05-25T07:48:19.024Z,76.35
2019-05-25T07:49:19.052Z,75.98
2019-05-25T07:50:19.003Z,75.95
2019-05-25T07:51:19.006Z,76.04
2019-05-25T07:52:18.986Z,75.74
2019-05-25T07:53:18.996Z,76.56
2019-05-25T07:54:18.988Z,76.72
2019-05-25T07:55:18.954Z,76.31
2019-05-25T07:56:18.935Z,76.35
2019-05-25T07:57:18.933Z,75.74
2019-05-25T07:58:18.939Z,74.79
2019-05-25T07:59:18.910Z,73.06
2019-05-25T08:00:18.923Z,72.69
2019-05-25T08:01:18.884Z,73.16
2019-05-25T08:02:18.868Z,72.34
2019-05-25T08:03:18.856Z,72.92
2019-05-25T08:04:18.863Z,71.43
2019-05-25T08:05:18.840Z,71.09
2019-05-25T08:06:18.822Z,71.23
2019-05-25T08:07:18.811Z,71.12
2019-05-25T08:08:18.811Z,71.09
2019-05-25T08:09:18.836Z,71.30
2019-05-25T08:10:18.790Z,70.82
2019-05-25T08:11:18.764Z,70.79
2019-05-25T08:12:18.765Z,71.50
2019-05-25T08:13:18.742Z,71.30
2019-05-25T08:14:18.748Z,70.35
2019-05-25T08:15:18.721Z,70.58
2019-05-25T08:16:18.714Z,69.43
2019-05-25T08:17:18.710Z,68.72
2019-05-25T08:18:18.701Z,68.92
2019-05-25T08:19:18.700Z,69.40
2019-05-25T08:20:18.671Z,66.93
2019-05-25T08:21:18.648Z,67.24
2019-05-25T08:22:18.638Z,66.15
2019-05-25T08:23:18.627Z,67.27
2019-05-25T08:24:18.653Z,66.86
2019-05-25T08:25:18.626Z,66.69
2019-05-25T08:26:18.602Z,66.58
2019-05-25T08:27:18.587Z,66.99
2019-05-25T08:28:31.819Z,67.27
2019-05-25T08:29:18.586Z,67.06
2019-05-25T08:30:18.563Z,67.27
2019-05-25T08:31:18.538Z,66.76
2019-05-25T08:32:18.536Z,67.47
2019-05-25T08:33:18.524Z,66.83
2019-05-25T08:34:18.528Z,66.02
2019-05-25T08:35:18.497Z,66.05
2019-05-25T08:36:18.493Z,64.64
2019-05-25T08:37:18.480Z,64.98
2019-05-25T08:38:18.474Z,63.46
2019-05-25T08:39:18.472Z,63.46
2019-05-25T08:40:18.445Z,63.52
2019-05-25T08:41:18.431Z,64.03
2019-05-25T08:42:18.428Z,63.92
2019-05-25T08:43:18.415Z,64.84
2019-05-25T08:44:18.417Z,65.48
2019-05-25T08:45:18.425Z,66.08
2019-05-25T08:46:18.387Z,66.08
2019-05-25T08:47:18.366Z,65.55
2019-05-25T08:48:18.376Z,66.08
2019-05-25T08:49:18.353Z,66.19
2019-05-25T08:50:18.358Z,65.78
2019-05-25T08:51:18.322Z,65.51
2019-05-25T08:52:18.359Z,65.61
2019-05-25T08:53:21.554Z,65.71
2019-05-25T08:54:18.292Z,65.75
2019-05-25T08:55:18.285Z,65.17
2019-05-25T08:56:18.283Z,64.67
2019-05-25T08:57:18.760Z,64.97
2019-05-25T08:58:18.259Z,65.37
2019-05-25T08:59:18.248Z,65.01
2019-05-25T09:00:18.250Z,63.08
2019-05-25T09:01:18.221Z,63.18
2019-05-25T09:02:18.205Z,63.82
2019-05-25T09:03:18.193Z,64.23
2019-05-25T09:04:18.184Z,63.72
2019-05-25T09:05:18.186Z,64.13
2019-05-25T09:06:18.163Z,63.62
2019-05-25T09:08:27.350Z,62.34
2019-05-25T09:09:28.329Z,61.74
2019-05-25T09:10:28.506Z,61.71
2019-05-25T09:11:28.306Z,59.65
2019-05-25T09:12:28.296Z,60.26
2019-05-25T09:13:28.284Z,60.14
2019-05-25T09:14:28.268Z,61.39
2019-05-25T09:15:28.282Z,61.76
2019-05-25T09:16:28.259Z,60.44
2019-05-25T09:17:28.247Z,60.49
2019-05-25T09:18:28.237Z,60.69
2019-05-25T09:19:28.213Z,59.25
2019-05-25T09:20:28.241Z,59.75
2019-05-25T09:21:28.209Z,60.26
2019-05-25T09:22:28.196Z,59.72
2019-05-25T09:23:28.182Z,59.12
2019-05-25T09:24:28.165Z,59.38
2019-05-25T09:25:28.162Z,60.82
2019-05-25T09:26:28.149Z,60.89
2019-05-25T09:27:28.150Z,59.52
2019-05-25T09:28:28.122Z,59.19
2019-05-25T09:29:28.131Z,59.22
2019-05-25T09:30:28.120Z,58.71
2019-05-25T09:31:28.097Z,58.67
2019-05-25T09:32:28.092Z,59.58
2019-05-25T09:33:28.063Z,59.17
2019-05-25T09:34:28.085Z,59.12
2019-05-25T09:35:28.089Z,58.99
2019-05-25T09:36:28.037Z,58.25
2019-05-25T09:37:28.040Z,58.12
2019-05-25T09:38:28.014Z,58.07
2019-05-25T09:39:28.006Z,57.54
2019-05-25T09:40:28.018Z,57.98
2019-05-25T09:41:27.985Z,58.71
2019-05-25T09:42:27.965Z,59.22
2019-05-25T09:43:27.952Z,59.63
2019-05-25T09:44:27.942Z,59.12
2019-05-25T09:45:27.953Z,60.00
2019-05-25T09:46:27.921Z,58.99
2019-05-25T09:47:27.913Z,59.92
2019-05-25T09:48:27.898Z,59.22
2019-05-25T09:49:27.887Z,59.22
2019-05-25T09:50:27.941Z,59.12
2019-05-25T09:51:27.869Z,59.07
2019-05-25T09:52:27.863Z,59.68
2019-05-25T09:53:27.856Z,60.75
2019-05-25T09:54:27.860Z,61.56
2019-05-25T09:55:27.829Z,62.40
2019-05-25T09:56:27.817Z,61.97
2019-05-25T09:57:27.810Z,61.63
2019-05-25T09:58:27.790Z,62.01
2019-05-25T09:59:27.802Z,60.53
2019-05-25T10:00:27.794Z,59.14
2019-05-25T10:01:27.772Z,60.49
2019-05-25T10:02:27.758Z,60.39
2019-05-25T10:03:27.743Z,61.60
2019-05-25T10:04:27.727Z,61.37
2019-05-25T10:05:27.838Z,59.55
2019-05-25T10:06:27.720Z,60.03
2019-05-25T10:07:27.721Z,59.42
2019-05-25T10:08:27.675Z,59.90
2019-05-25T10:09:27.670Z,59.16
2019-05-25T10:10:27.677Z,57.01
2019-05-25T10:11:27.657Z,56.51
2019-05-25T10:12:27.640Z,57.11
2019-05-25T10:13:27.620Z,58.76
2019-05-25T10:14:27.606Z,58.51
2019-05-25T10:15:28.474Z,59.39
2019-05-25T10:16:27.617Z,58.15
2019-05-25T10:17:27.579Z,58.76
2019-05-25T10:18:27.588Z,56.98
2019-05-25T10:19:27.549Z,55.92
2019-05-25T10:20:27.547Z,54.86
2019-05-25T10:21:27.548Z,54.58
2019-05-25T10:22:27.534Z,54.56
2019-05-25T10:23:27.508Z,53.92
2019-05-25T10:24:27.511Z,54.28
2019-05-25T10:25:27.493Z,53.96
2019-05-25T10:26:27.504Z,54.03
2019-05-25T10:27:27.468Z,53.92
2019-05-25T10:28:27.478Z,54.23
2019-05-25T10:29:36.756Z,54.13
2019-05-25T10:30:27.444Z,55.29
2019-05-25T10:31:27.441Z,56.56
2019-05-25T10:32:27.423Z,56.02
2019-05-25T10:33:27.414Z,55.24
2019-05-25T10:34:27.397Z,54.43
2019-05-25T10:35:27.465Z,53.50
2019-05-25T10:36:27.387Z,53.72
2019-05-25T10:37:27.361Z,54.46
2019-05-25T10:38:27.340Z,54.46
2019-05-25T10:39:27.507Z,55.26
2019-05-25T10:40:27.340Z,54.58
2019-05-25T10:41:27.342Z,54.99
2019-05-25T10:42:27.310Z,54.86
2019-05-25T10:43:27.301Z,54.76
2019-05-25T10:44:27.273Z,54.91
2019-05-25T10:45:27.277Z,55.82
2019-05-25T10:46:27.311Z,56.51
2019-05-25T10:47:27.248Z,57.82
2019-05-25T10:48:27.246Z,56.65
2019-05-25T10:49:27.228Z,56.73
2019-05-25T10:50:27.228Z,55.19
2019-05-25T10:51:27.230Z,55.16
2019-05-25T10:52:27.205Z,55.77
2019-05-25T10:53:27.189Z,55.79
2019-05-25T10:54:27.174Z,55.32
2019-05-25T10:55:27.157Z,55.82
2019-05-25T10:56:27.175Z,56.83
2019-05-25T10:57:27.145Z,55.79
2019-05-25T10:58:27.134Z,54.96
2019-05-25T10:59:27.111Z,55.69
2019-05-25T11:00:27.108Z,56.23
2019-05-25T11:01:27.205Z,56.25
2019-05-25T11:02:27.086Z,55.39
2019-05-25T11:03:27.082Z,54.66
2019-05-25T11:04:27.064Z,55.32
2019-05-25T11:05:27.049Z,57.16
2019-05-25T11:06:27.070Z,57.36
2019-05-25T11:07:27.043Z,56.98
2019-05-25T11:09:37.403Z,58.07
2019-05-25T11:10:38.339Z,56.23
2019-05-25T11:11:38.332Z,56.12
2019-05-25T11:12:38.343Z,56.15
2019-05-25T11:13:38.303Z,55.82
2019-05-25T11:14:38.320Z,55.79
2019-05-25T11:15:38.288Z,55.90
2019-05-25T11:16:38.302Z,55.09
2019-05-25T11:17:38.256Z,56.52
2019-05-25T11:18:38.308Z,56.12
2019-05-25T11:19:38.245Z,55.99
2019-05-25T11:20:38.279Z,54.63
2019-05-25T11:21:38.262Z,53.60
2019-05-25T11:22:38.205Z,54.53
2019-05-25T11:23:38.197Z,54.36
2019-05-25T11:24:38.187Z,53.90
2019-05-25T11:25:38.197Z,54.41
2019-05-25T11:26:38.176Z,53.67
2019-05-25T11:27:38.225Z,53.45
2019-05-25T11:28:38.142Z,53.34
2019-05-25T11:29:38.124Z,53.27
2019-05-25T11:30:38.122Z,53.20
2019-05-25T11:31:38.289Z,52.80
2019-05-25T11:32:38.127Z,54.36
2019-05-25T11:33:38.109Z,54.66
2019-05-25T11:34:38.088Z,54.46
2019-05-25T11:35:38.082Z,54.46
2019-05-25T11:36:38.076Z,54.96
2019-05-25T11:37:38.101Z,55.06
2019-05-25T11:38:38.044Z,55.66
2019-05-25T11:39:38.065Z,54.83
2019-05-25T11:40:38.015Z,54.30
2019-05-25T11:41:37.998Z,53.55
2019-05-25T11:42:38.029Z,53.45
2019-05-25T11:43:38.006Z,51.91
2019-05-25T11:44:37.969Z,53.45
2019-05-25T11:45:38.000Z,52.24
2019-05-25T11:46:37.997Z,53.05
2019-05-25T11:47:37.958Z,51.93
2019-05-25T11:48:37.943Z,52.62
2019-05-25T11:49:37.914Z,52.19
2019-05-25T11:50:37.933Z,52.49
2019-05-25T11:51:37.917Z,53.05
2019-05-25T11:52:38.136Z,53.22
2019-05-25T11:53:37.886Z,53.45
2019-05-25T11:54:37.865Z,52.51
2019-05-25T11:55:37.884Z,52.39
2019-05-25T11:56:37.829Z,51.89
2019-05-25T11:57:37.852Z,52.17
2019-05-25T11:58:46.966Z,51.36
2019-05-25T11:59:37.813Z,52.17
2019-05-25T12:00:37.808Z,51.39
2019-05-25T12:01:37.783Z,52.69
2019-05-25T12:02:37.797Z,53.50
2019-05-25T12:03:37.777Z,52.89
2019-05-25T12:04:37.789Z,53.98
2019-05-25T12:05:37.758Z,54.43
2019-05-25T12:06:37.741Z,55.06
2019-05-25T12:07:37.733Z,55.36
2019-05-25T12:08:37.716Z,55.77
2019-05-25T12:09:37.705Z,55.34
2019-05-25T12:10:37.694Z,55.11
2019-05-25T12:11:37.689Z,54.41
2019-05-25T12:12:37.681Z,54.05
2019-05-25T12:13:37.656Z,54.08
2019-05-25T12:14:37.668Z,54.71
2019-05-25T12:15:37.685Z,54.05
2019-05-25T12:16:37.647Z,53.63
2019-05-25T12:17:37.655Z,53.88
2019-05-25T12:18:37.624Z,55.62
2019-05-25T12:19:37.610Z,54.63
2019-05-25T12:20:37.584Z,54.94
2019-05-25T12:21:37.564Z,54.96
2019-05-25T12:22:37.601Z,54.36
2019-05-25T12:23:37.544Z,55.26
2019-05-25T12:24:37.560Z,55.66
2019-05-25T12:25:37.537Z,55.74
2019-05-25T12:26:37.514Z,55.62
2019-05-25T12:27:37.546Z,54.48
2019-05-25T12:28:37.649Z,53.05
2019-05-25T12:29:37.486Z,54.25
2019-05-25T12:30:40.895Z,54.38
2019-05-25T12:31:37.489Z,55.21
2019-05-25T12:32:37.455Z,55.19
2019-05-25T12:33:37.473Z,55.24
2019-05-25T12:34:37.418Z,56.37
2019-05-25T12:35:37.418Z,56.07
2019-05-25T12:36:37.439Z,56.37
2019-05-25T12:37:37.429Z,55.94
2019-05-25T12:38:37.398Z,56.37
2019-05-25T12:39:37.405Z,56.37
2019-05-25T12:40:52.456Z,56.98
2019-05-25T12:41:37.387Z,56.55
2019-05-25T12:42:37.376Z,55.64
2019-05-25T12:43:37.343Z,55.64
2019-05-25T12:44:37.341Z,55.71
2019-05-25T12:45:37.309Z,55.21
2019-05-25T12:46:37.294Z,56.35
2019-05-25T12:47:37.330Z,55.21
2019-05-25T12:48:37.282Z,55.01
2019-05-25T12:49:50.026Z,54.68
2019-05-25T12:50:37.305Z,55.19
2019-05-25T12:51:37.275Z,54.55
2019-05-25T12:52:37.274Z,54.46
2019-05-25T12:53:37.253Z,54.25
2019-05-25T12:54:37.234Z,53.83
2019-05-25T12:55:37.231Z,54.15
2019-05-25T12:56:37.226Z,55.39
2019-05-25T12:57:37.214Z,55.79
2019-05-25T12:58:37.187Z,55.08
2019-05-25T12:59:37.180Z,56.07